Aviation Digital Data Service (ADDS)

Output produced by TAFs form (0906 UTC 24 January 2017)
found at http://www.aviationweather.gov/adds/tafs/
 
KSBY 240848Z 2409/2506 33012G20KT 6SM -RA OVC010 
     TEMPO 2409/2412 2SM -RA BR OVC005 
     FM241200 32014G22KT P6SM -RA OVC007 
     FM241500 31015G24KT P6SM -RA OVC012 
     FM241800 31016G25KT P6SM OVC025 
     FM242100 31015G24KT P6SM OVC040 
     FM250300 31012G18KT P6SM SKC